sensor_id;sensor_type;location;lat;lon;timestamp;pressure;altitude;pressure_sealevel;temperature;humidity
54600;BME280;40500;51.084;16.958;2022-12-10T00:01:18;99339.56;;;0.91;100.00
54600;BME280;40500;51.084;16.958;2022-12-10T00:04:09;99340.10;;;0.93;100.00
54600;BME280;40500;51.084;16.958;2022-12-10T00:07:08;99339.23;;;0.94;100.00
54600;BME280;40500;51.084;16.958;2022-12-10T00:10:04;99339.07;;;0.95;100.00
54600;BME280;40500;51.084;16.958;2022-12-10T00:12:44;99337.52;;;0.96;100.00
54600;BME280;40500;51.084;16.958;2022-12-10T00:15:50;99332.52;;;0.97;100.00
54600;BME280;40500;51.084;16.958;2022-12-10T00:18:47;99333.40;;;0.96;100.00
54600;BME280;40500;51.084;16.958;2022-12-10T00:21:45;99335.27;;;0.94;100.00
54600;BME280;40500;51.084;16.958;2022-12-10T00:24:40;99330.11;;;0.94;100.00
54600;BME280;40500;51.084;16.958;2022-12-10T00:27:33;99331.13;;;0.92;100.00
54600;BME280;40500;51.084;16.958;2022-12-10T00:30:28;99325.78;;;0.92;100.00
54600;BME280;40500;51.084;16.958;2022-12-10T00:33:01;99320.09;;;0.90;100.00
54600;BME280;40500;51.084;16.958;2022-12-10T00:35:36;99323.00;;;0.88;100.00
54600;BME280;40500;51.084;16.958;2022-12-10T00:38:08;99320.95;;;0.89;100.00
54600;BME280;40500;51.084;16.958;2022-12-10T00:40:41;99320.08;;;0.90;100.00
54600;BME280;40500;51.084;16.958;2022-12-10T00:43:33;99320.09;;;0.89;100.00
54600;BME280;40500;51.084;16.958;2022-12-10T00:46:27;99318.52;;;0.89;100.00
54600;BME280;40500;51.084;16.958;2022-12-10T00:49:25;99323.88;;;0.89;100.00
54600;BME280;40500;51.084;16.958;2022-12-10T00:52:23;99323.70;;;0.88;100.00
54600;BME280;40500;51.084;16.958;2022-12-10T00:55:30;99327.66;;;0.89;100.00
54600;BME280;40500;51.084;16.958;2022-12-10T00:58:02;99331.30;;;0.91;100.00
54600;BME280;40500;51.084;16.958;2022-12-10T01:00:37;99330.61;;;0.92;100.00
54600;BME280;40500;51.084;16.958;2022-12-10T01:03:12;99327.85;;;0.93;100.00
54600;BME280;40500;51.084;16.958;2022-12-10T01:06:14;99332.50;;;0.91;100.00
54600;BME280;40500;51.084;16.958;2022-12-10T01:08:49;99333.70;;;0.90;100.00
54600;BME280;40500;51.084;16.958;2022-12-10T01:11:26;99336.80;;;0.89;100.00
54600;BME280;40500;51.084;16.958;2022-12-10T01:14:01;99335.94;;;0.88;100.00
54600;BME280;40500;51.084;16.958;2022-12-10T01:16:33;99336.95;;;0.87;100.00
54600;BME280;40500;51.084;16.958;2022-12-10T01:19:08;99337.80;;;0.86;100.00
54600;BME280;40500;51.084;16.958;2022-12-10T01:21:39;99345.06;;;0.86;100.00
54600;BME280;40500;51.084;16.958;2022-12-10T01:24:11;99347.45;;;0.85;100.00
54600;BME280;40500;51.084;16.958;2022-12-10T01:26:47;99347.61;;;0.84;100.00
54600;BME280;40500;51.084;16.958;2022-12-10T01:29:19;99349.70;;;0.85;100.00
54600;BME280;40500;51.084;16.958;2022-12-10T01:31:51;99347.96;;;0.84;100.00
54600;BME280;40500;51.084;16.958;2022-12-10T01:34:25;99352.45;;;0.85;100.00
54600;BME280;40500;51.084;16.958;2022-12-10T01:36:59;99356.23;;;0.83;100.00
54600;BME280;40500;51.084;16.958;2022-12-10T01:39:33;99351.92;;;0.84;100.00
54600;BME280;40500;51.084;16.958;2022-12-10T01:42:06;99350.39;;;0.85;100.00
54600;BME280;40500;51.084;16.958;2022-12-10T01:44:59;99353.83;;;0.84;100.00
54600;BME280;40500;51.084;16.958;2022-12-10T01:47:31;99352.95;;;0.84;100.00
54600;BME280;40500;51.084;16.958;2022-12-10T01:50:06;99349.36;;;0.83;100.00
54600;BME280;40500;51.084;16.958;2022-12-10T01:52:40;99352.27;;;0.82;100.00
54600;BME280;40500;51.084;16.958;2022-12-10T01:55:40;99349.84;;;0.81;100.00
54600;BME280;40500;51.084;16.958;2022-12-10T01:58:13;99344.67;;;0.80;100.00
54600;BME280;40500;51.084;16.958;2022-12-10T02:00:56;99341.92;;;0.80;100.00
54600;BME280;40500;51.084;16.958;2022-12-10T02:03:40;99340.52;;;0.79;100.00
54600;BME280;40500;51.084;16.958;2022-12-10T02:06:25;99336.73;;;0.79;100.00
54600;BME280;40500;51.084;16.958;2022-12-10T02:09:07;99340.36;;;0.79;100.00
54600;BME280;40500;51.084;16.958;2022-12-10T02:11:44;99335.53;;;0.79;100.00
54600;BME280;40500;51.084;16.958;2022-12-10T02:14:23;99332.77;;;0.78;100.00
54600;BME280;40500;51.084;16.958;2022-12-10T02:17:01;99331.56;;;0.77;100.00
54600;BME280;40500;51.084;16.958;2022-12-10T02:19:49;99341.55;;;0.77;100.00
54600;BME280;40500;51.084;16.958;2022-12-10T02:22:26;99338.28;;;0.77;100.00
54600;BME280;40500;51.084;16.958;2022-12-10T02:25:01;99339.29;;;0.76;100.00
54600;BME280;40500;51.084;16.958;2022-12-10T02:27:42;99343.60;;;0.76;100.00
54600;BME280;40500;51.084;16.958;2022-12-10T02:30:17;99338.59;;;0.76;100.00
54600;BME280;40500;51.084;16.958;2022-12-10T02:32:50;99340.68;;;0.77;100.00
54600;BME280;40500;51.084;16.958;2022-12-10T02:35:25;99341.02;;;0.76;100.00
54600;BME280;40500;51.084;16.958;2022-12-10T02:38:05;99346.55;;;0.77;100.00
54600;BME280;40500;51.084;16.958;2022-12-10T02:40:41;99350.52;;;0.77;100.00
54600;BME280;40500;51.084;16.958;2022-12-10T02:43:18;99348.62;;;0.78;100.00
54600;BME280;40500;51.084;16.958;2022-12-10T02:45:53;99353.96;;;0.78;100.00
54600;BME280;40500;51.084;16.958;2022-12-10T02:48:27;99357.42;;;0.80;100.00
54600;BME280;40500;51.084;16.958;2022-12-10T02:51:02;99359.50;;;0.82;100.00
54600;BME280;40500;51.084;16.958;2022-12-10T02:53:40;99357.95;;;0.84;100.00
54600;BME280;40500;51.084;16.958;2022-12-10T02:56:17;99362.10;;;0.83;100.00
54600;BME280;40500;51.084;16.958;2022-12-10T02:59:02;99363.98;;;0.83;100.00
54600;BME280;40500;51.084;16.958;2022-12-10T03:01:44;99358.64;;;0.83;100.00
54600;BME280;40500;51.084;16.958;2022-12-10T03:04:28;99360.90;;;0.83;100.00
54600;BME280;40500;51.084;16.958;2022-12-10T03:07:05;99356.59;;;0.83;100.00
54600;BME280;40500;51.084;16.958;2022-12-10T03:09:40;99361.58;;;0.84;100.00
54600;BME280;40500;51.084;16.958;2022-12-10T03:12:19;99357.77;;;0.84;100.00
54600;BME280;40500;51.084;16.958;2022-12-10T03:14:54;99368.14;;;0.85;100.00
54600;BME280;40500;51.084;16.958;2022-12-10T03:17:31;99371.77;;;0.85;100.00
54600;BME280;40500;51.084;16.958;2022-12-10T03:20:09;99375.89;;;0.85;100.00
54600;BME280;40500;51.084;16.958;2022-12-10T03:22:45;99376.41;;;0.85;100.00
54600;BME280;40500;51.084;16.958;2022-12-10T03:25:23;99375.88;;;0.83;100.00
54600;BME280;40500;51.084;16.958;2022-12-10T03:27:59;99373.63;;;0.82;100.00
54600;BME280;40500;51.084;16.958;2022-12-10T03:30:35;99373.11;;;0.81;100.00
54600;BME280;40500;51.084;16.958;2022-12-10T03:33:09;99376.55;;;0.80;100.00
54600;BME280;40500;51.084;16.958;2022-12-10T03:35:43;99373.27;;;0.79;100.00
54600;BME280;40500;51.084;16.958;2022-12-10T03:38:19;99375.00;;;0.79;100.00
54600;BME280;40500;51.084;16.958;2022-12-10T03:40:50;99374.80;;;0.78;100.00
54600;BME280;40500;51.084;16.958;2022-12-10T03:43:23;99373.26;;;0.77;100.00
54600;BME280;40500;51.084;16.958;2022-12-10T03:46:01;99365.34;;;0.77;100.00
54600;BME280;40500;51.084;16.958;2022-12-10T03:48:33;99362.39;;;0.75;100.00
54600;BME280;40500;51.084;16.958;2022-12-10T03:51:08;99367.89;;;0.75;100.00
54600;BME280;40500;51.084;16.958;2022-12-10T03:53:44;99367.38;;;0.74;100.00
54600;BME280;40500;51.084;16.958;2022-12-10T03:56:19;99371.00;;;0.75;100.00
54600;BME280;40500;51.084;16.958;2022-12-10T03:58:51;99371.70;;;0.76;100.00
54600;BME280;40500;51.084;16.958;2022-12-10T04:01:23;99373.58;;;0.75;100.00
54600;BME280;40500;51.084;16.958;2022-12-10T04:03:57;99370.80;;;0.72;100.00
54600;BME280;40500;51.084;16.958;2022-12-10T04:06:31;99377.17;;;0.71;100.00
54600;BME280;40500;51.084;16.958;2022-12-10T04:09:08;99377.16;;;0.69;100.00
54600;BME280;40500;51.084;16.958;2022-12-10T04:11:42;99383.00;;;0.68;100.00
54600;BME280;40500;51.084;16.958;2022-12-10T04:14:14;99381.46;;;0.67;100.00
54600;BME280;40500;51.084;16.958;2022-12-10T04:17:04;99390.76;;;0.68;100.00
54600;BME280;40500;51.084;16.958;2022-12-10T04:19:38;99388.52;;;0.68;100.00
54600;BME280;40500;51.084;16.958;2022-12-10T04:22:10;99392.13;;;0.67;100.00
54600;BME280;40500;51.084;16.958;2022-12-10T04:25:00;99393.50;;;0.66;100.00
54600;BME280;40500;51.084;16.958;2022-12-10T04:27:51;99388.86;;;0.67;100.00
54600;BME280;40500;51.084;16.958;2022-12-10T04:30:23;99396.62;;;0.67;100.00
54600;BME280;40500;51.084;16.958;2022-12-10T04:32:54;99397.84;;;0.69;100.00
54600;BME280;40500;51.084;16.958;2022-12-10T04:35:26;99395.94;;;0.70;100.00
54600;BME280;40500;51.084;16.958;2022-12-10T04:37:57;99396.64;;;0.71;100.00
54600;BME280;40500;51.084;16.958;2022-12-10T04:40:29;99394.92;;;0.72;100.00
54600;BME280;40500;51.084;16.958;2022-12-10T04:43:00;99395.45;;;0.72;100.00
54600;BME280;40500;51.084;16.958;2022-12-10T04:45:35;99396.13;;;0.72;100.00
54600;BME280;40500;51.084;16.958;2022-12-10T04:48:09;99396.83;;;0.72;100.00
54600;BME280;40500;51.084;16.958;2022-12-10T04:50:41;99402.86;;;0.72;100.00
54600;BME280;40500;51.084;16.958;2022-12-10T04:53:13;99405.10;;;0.73;100.00
54600;BME280;40500;51.084;16.958;2022-12-10T04:55:47;99408.55;;;0.73;100.00
54600;BME280;40500;51.084;16.958;2022-12-10T04:58:19;99412.16;;;0.71;100.00
54600;BME280;40500;51.084;16.958;2022-12-10T05:00:51;99413.17;;;0.70;100.00
54600;BME280;40500;51.084;16.958;2022-12-10T05:03:24;99413.52;;;0.71;100.00
54600;BME280;40500;51.084;16.958;2022-12-10T05:06:02;99409.38;;;0.68;100.00
54600;BME280;40500;51.084;16.958;2022-12-10T05:08:35;99406.41;;;0.65;100.00
54600;BME280;40500;51.084;16.958;2022-12-10T05:11:11;99404.19;;;0.66;100.00
54600;BME280;40500;51.084;16.958;2022-12-10T05:13:44;99404.02;;;0.66;100.00
54600;BME280;40500;51.084;16.958;2022-12-10T05:16:19;99404.88;;;0.66;100.00
54600;BME280;40500;51.084;16.958;2022-12-10T05:18:52;99405.22;;;0.65;100.00
54600;BME280;40500;51.084;16.958;2022-12-10T05:21:28;99407.96;;;0.65;100.00
54600;BME280;40500;51.084;16.958;2022-12-10T05:24:21;99412.64;;;0.66;100.00
54600;BME280;40500;51.084;16.958;2022-12-10T05:26:55;99419.19;;;0.68;100.00
54600;BME280;40500;51.084;16.958;2022-12-10T05:29:30;99418.67;;;0.67;100.00
54600;BME280;40500;51.084;16.958;2022-12-10T05:32:06;99421.23;;;0.66;100.00
54600;BME280;40500;51.084;16.958;2022-12-10T05:34:39;99421.05;;;0.64;100.00
54600;BME280;40500;51.084;16.958;2022-12-10T05:37:12;99418.46;;;0.62;100.00
54600;BME280;40500;51.084;16.958;2022-12-10T05:39:44;99422.92;;;0.62;100.00
54600;BME280;40500;51.084;16.958;2022-12-10T05:42:25;99428.09;;;0.62;100.00
54600;BME280;40500;51.084;16.958;2022-12-10T05:44:57;99427.91;;;0.60;100.00
54600;BME280;40500;51.084;16.958;2022-12-10T05:47:30;99425.50;;;0.59;100.00
54600;BME280;40500;51.084;16.958;2022-12-10T05:50:04;99423.94;;;0.59;100.00
54600;BME280;40500;51.084;16.958;2022-12-10T05:52:37;99424.95;;;0.56;100.00
54600;BME280;40500;51.084;16.958;2022-12-10T05:55:10;99417.88;;;0.56;100.00
54600;BME280;40500;51.084;16.958;2022-12-10T05:57:41;99414.27;;;0.55;100.00
54600;BME280;40500;51.084;16.958;2022-12-10T06:00:17;99415.29;;;0.54;100.00
54600;BME280;40500;51.084;16.958;2022-12-10T06:02:47;99421.66;;;0.54;100.00
54600;BME280;40500;51.084;16.958;2022-12-10T06:05:21;99422.18;;;0.55;100.00
54600;BME280;40500;51.084;16.958;2022-12-10T06:08:36;99417.39;;;0.58;100.00
54600;BME280;40500;51.084;16.958;2022-12-10T06:11:12;99423.23;;;0.56;100.00
54600;BME280;40500;51.084;16.958;2022-12-10T06:13:45;99420.50;;;0.57;100.00
54600;BME280;40500;51.084;16.958;2022-12-10T06:16:29;99414.64;;;0.59;100.00
54600;BME280;40500;51.084;16.958;2022-12-10T06:19:00;99416.37;;;0.61;100.00
54600;BME280;40500;51.084;16.958;2022-12-10T06:21:33;99418.27;;;0.62;100.00
54600;BME280;40500;51.084;16.958;2022-12-10T06:24:06;99422.09;;;0.64;100.00
54600;BME280;40500;51.084;16.958;2022-12-10T06:26:37;99416.39;;;0.63;100.00
54600;BME280;40500;51.084;16.958;2022-12-10T06:29:10;99418.63;;;0.62;100.00
54600;BME280;40500;51.084;16.958;2022-12-10T06:31:43;99423.63;;;0.61;100.00
54600;BME280;40500;51.084;16.958;2022-12-10T06:34:18;99427.22;;;0.61;100.00
54600;BME280;40500;51.084;16.958;2022-12-10T06:36:50;99423.44;;;0.60;100.00
54600;BME280;40500;51.084;16.958;2022-12-10T06:39:22;99425.67;;;0.60;100.00
54600;BME280;40500;51.084;16.958;2022-12-10T06:41:54;99427.21;;;0.60;100.00
54600;BME280;40500;51.084;16.958;2022-12-10T06:44:31;99422.73;;;0.58;100.00
54600;BME280;40500;51.084;16.958;2022-12-10T06:47:07;99427.55;;;0.57;100.00
54600;BME280;40500;51.084;16.958;2022-12-10T06:49:59;99425.45;;;0.55;100.00
54600;BME280;40500;51.084;16.958;2022-12-10T06:52:31;99430.30;;;0.55;100.00
54600;BME280;40500;51.084;16.958;2022-12-10T06:55:24;99437.86;;;0.55;100.00
54600;BME280;40500;51.084;16.958;2022-12-10T06:57:58;99441.15;;;0.56;100.00
54600;BME280;40500;51.084;16.958;2022-12-10T07:00:33;99442.36;;;0.56;100.00
54600;BME280;40500;51.084;16.958;2022-12-10T07:03:07;99442.69;;;0.53;100.00
54600;BME280;40500;51.084;16.958;2022-12-10T07:05:43;99451.13;;;0.54;100.00
54600;BME280;40500;51.084;16.958;2022-12-10T07:08:16;99453.19;;;0.54;100.00
54600;BME280;40500;51.084;16.958;2022-12-10T07:11:12;99456.45;;;0.54;100.00
54600;BME280;40500;51.084;16.958;2022-12-10T07:13:44;99456.79;;;0.53;100.00
54600;BME280;40500;51.084;16.958;2022-12-10T07:16:17;99454.05;;;0.54;100.00
54600;BME280;40500;51.084;16.958;2022-12-10T07:18:53;99456.10;;;0.53;100.00
54600;BME280;40500;51.084;16.958;2022-12-10T07:21:28;99460.23;;;0.53;100.00
54600;BME280;40500;51.084;16.958;2022-12-10T07:24:05;99458.32;;;0.52;100.00
54600;BME280;40500;51.084;16.958;2022-12-10T07:26:40;99460.23;;;0.53;100.00
54600;BME280;40500;51.084;16.958;2022-12-10T07:29:16;99455.59;;;0.53;100.00
54600;BME280;40500;51.084;16.958;2022-12-10T07:31:49;99457.82;;;0.53;100.00
54600;BME280;40500;51.084;16.958;2022-12-10T07:34:20;99458.50;;;0.51;100.00
54600;BME280;40500;51.084;16.958;2022-12-10T07:36:56;99462.27;;;0.51;100.00
54600;BME280;40500;51.084;16.958;2022-12-10T07:39:26;99461.42;;;0.52;100.00
54600;BME280;40500;51.084;16.958;2022-12-10T07:42:08;99458.16;;;0.53;100.00
54600;BME280;40500;51.084;16.958;2022-12-10T07:44:41;99452.97;;;0.51;100.00
54600;BME280;40500;51.084;16.958;2022-12-10T07:47:18;99461.57;;;0.49;100.00
54600;BME280;40500;51.084;16.958;2022-12-10T07:49:50;99463.13;;;0.49;100.00
54600;BME280;40500;51.084;16.958;2022-12-10T07:52:24;99465.87;;;0.47;100.00
54600;BME280;40500;51.084;16.958;2022-12-10T07:54:56;99471.90;;;0.49;100.00
54600;BME280;40500;51.084;16.958;2022-12-10T07:57:29;99471.75;;;0.50;100.00
54600;BME280;40500;51.084;16.958;2022-12-10T08:00:00;99478.46;;;0.50;100.00
54600;BME280;40500;51.084;16.958;2022-12-10T08:02:40;99481.58;;;0.51;100.00
54600;BME280;40500;51.084;16.958;2022-12-10T08:05:12;99478.67;;;0.52;100.00
54600;BME280;40500;51.084;16.958;2022-12-10T08:07:45;99480.21;;;0.53;100.00
54600;BME280;40500;51.084;16.958;2022-12-10T08:10:19;99485.23;;;0.54;100.00
54600;BME280;40500;51.084;16.958;2022-12-10T08:12:52;99490.56;;;0.54;100.00
54600;BME280;40500;51.084;16.958;2022-12-10T08:15:23;99490.70;;;0.53;100.00
54600;BME280;40500;51.084;16.958;2022-12-10T08:18:09;99491.57;;;0.52;100.00
54600;BME280;40500;51.084;16.958;2022-12-10T08:20:39;99490.04;;;0.53;100.00
54600;BME280;40500;51.084;16.958;2022-12-10T08:23:15;99482.43;;;0.51;100.00
54600;BME280;40500;51.084;16.958;2022-12-10T08:25:48;99486.39;;;0.49;100.00
54600;BME280;40500;51.084;16.958;2022-12-10T08:28:20;99488.26;;;0.47;100.00
54600;BME280;40500;51.084;16.958;2022-12-10T08:30:52;99485.67;;;0.47;100.00
54600;BME280;40500;51.084;16.958;2022-12-10T08:33:23;99487.37;;;0.45;100.00
54600;BME280;40500;51.084;16.958;2022-12-10T08:36:00;99489.25;;;0.45;100.00
54600;BME280;40500;51.084;16.958;2022-12-10T08:38:35;99489.10;;;0.46;100.00
54600;BME280;40500;51.084;16.958;2022-12-10T08:41:11;99490.66;;;0.47;100.00
54600;BME280;40500;51.084;16.958;2022-12-10T08:43:45;99495.67;;;0.48;100.00
54600;BME280;40500;51.084;16.958;2022-12-10T08:46:17;99495.17;;;0.50;100.00
54600;BME280;40500;51.084;16.958;2022-12-10T08:48:48;99503.95;;;0.49;100.00
54600;BME280;40500;51.084;16.958;2022-12-10T08:51:22;99499.48;;;0.50;100.00
54600;BME280;40500;51.084;16.958;2022-12-10T08:53:57;99502.41;;;0.51;100.00
54600;BME280;40500;51.084;16.958;2022-12-10T08:56:30;99500.01;;;0.52;100.00
54600;BME280;40500;51.084;16.958;2022-12-10T08:59:03;99497.94;;;0.52;100.00
54600;BME280;40500;51.084;16.958;2022-12-10T09:01:35;99500.17;;;0.52;100.00
54600;BME280;40500;51.084;16.958;2022-12-10T09:04:09;99501.05;;;0.53;100.00
54600;BME280;40500;51.084;16.958;2022-12-10T09:06:47;99500.89;;;0.53;100.00
54600;BME280;40500;51.084;16.958;2022-12-10T09:09:27;99500.73;;;0.56;100.00
54600;BME280;40500;51.084;16.958;2022-12-10T09:11:58;99501.61;;;0.56;100.00
54600;BME280;40500;51.084;16.958;2022-12-10T09:14:30;99500.77;;;0.57;100.00
54600;BME280;40500;51.084;16.958;2022-12-10T09:17:09;99504.23;;;0.61;100.00
54600;BME280;40500;51.084;16.958;2022-12-10T09:19:49;99500.45;;;0.62;100.00
54600;BME280;40500;51.084;16.958;2022-12-10T09:22:21;99503.41;;;0.65;100.00
54600;BME280;40500;51.084;16.958;2022-12-10T09:24:52;99504.13;;;0.67;100.00
54600;BME280;40500;51.084;16.958;2022-12-10T09:27:45;99504.66;;;0.69;100.00
54600;BME280;40500;51.084;16.958;2022-12-10T09:30:18;99502.23;;;0.68;100.00
54600;BME280;40500;51.084;16.958;2022-12-10T09:32:52;99501.53;;;0.67;100.00
54600;BME280;40500;51.084;16.958;2022-12-10T09:35:25;99494.32;;;0.67;100.00
54600;BME280;40500;51.084;16.958;2022-12-10T09:37:57;99501.93;;;0.72;100.00
54600;BME280;40500;51.084;16.958;2022-12-10T09:40:35;99500.59;;;0.77;100.00
54600;BME280;40500;51.084;16.958;2022-12-10T09:43:16;99499.08;;;0.79;100.00
54600;BME280;40500;51.084;16.958;2022-12-10T09:46:06;99497.73;;;0.83;100.00
54600;BME280;40500;51.084;16.958;2022-12-10T09:48:54;99497.39;;;0.85;100.00
54600;BME280;40500;51.084;16.958;2022-12-10T09:51:31;99499.15;;;0.89;100.00
54600;BME280;40500;51.084;16.958;2022-12-10T09:54:15;99494.01;;;0.91;100.00
54600;BME280;40500;51.084;16.958;2022-12-10T09:56:54;99494.52;;;0.93;100.00
54600;BME280;40500;51.084;16.958;2022-12-10T09:59:29;99488.01;;;0.94;100.00
54600;BME280;40500;51.084;16.958;2022-12-10T10:02:16;99482.30;;;0.94;100.00
54600;BME280;40500;51.084;16.958;2022-12-10T10:04:50;99475.58;;;0.95;100.00
54600;BME280;40500;51.084;16.958;2022-12-10T10:07:28;99470.60;;;0.97;100.00
54600;BME280;40500;51.084;16.958;2022-12-10T10:10:05;99467.14;;;0.96;100.00
54600;BME280;40500;51.084;16.958;2022-12-10T10:12:54;99466.64;;;0.98;100.00
54600;BME280;40500;51.084;16.958;2022-12-10T10:15:33;99462.00;;;1.00;100.00
54600;BME280;40500;51.084;16.958;2022-12-10T10:18:16;99461.00;;;1.03;100.00
54600;BME280;40500;51.084;16.958;2022-12-10T10:20:52;99456.16;;;1.02;100.00
54600;BME280;40500;51.084;16.958;2022-12-10T10:23:24;99456.84;;;1.00;100.00
54600;BME280;40500;51.084;16.958;2022-12-10T10:26:01;99458.73;;;1.01;100.00
54600;BME280;40500;51.084;16.958;2022-12-10T10:28:37;99461.51;;;1.02;100.00
54600;BME280;40500;51.084;16.958;2022-12-10T10:31:32;99452.73;;;1.03;100.00
54600;BME280;40500;51.084;16.958;2022-12-10T10:34:14;99447.89;;;1.02;100.00
54600;BME280;40500;51.084;16.958;2022-12-10T10:36:52;99455.80;;;0.98;100.00
54600;BME280;40500;51.084;16.958;2022-12-10T10:39:32;99453.54;;;0.98;100.00
54600;BME280;40500;51.084;16.958;2022-12-10T10:42:10;99453.38;;;0.98;100.00
54600;BME280;40500;51.084;16.958;2022-12-10T10:44:46;99450.96;;;0.99;100.00
54600;BME280;40500;51.084;16.958;2022-12-10T10:47:29;99448.55;;;0.98;100.00
54600;BME280;40500;51.084;16.958;2022-12-10T10:50:04;99441.31;;;0.99;100.00
54600;BME280;40500;51.084;16.958;2022-12-10T10:52:41;99440.10;;;0.99;100.00
54600;BME280;40500;51.084;16.958;2022-12-10T10:55:31;99442.85;;;0.98;100.00
54600;BME280;40500;51.084;16.958;2022-12-10T10:58:05;99440.27;;;0.96;100.00
54600;BME280;40500;51.084;16.958;2022-12-10T11:00:35;99441.45;;;0.95;100.00
54600;BME280;40500;51.084;16.958;2022-12-10T11:03:08;99445.23;;;0.92;100.00
54600;BME280;40500;51.084;16.958;2022-12-10T11:05:39;99449.86;;;0.90;100.00
54600;BME280;40500;51.084;16.958;2022-12-10T11:08:17;99451.09;;;0.91;100.00
54600;BME280;40500;51.084;16.958;2022-12-10T11:10:51;99455.89;;;0.91;100.00
54600;BME280;40500;51.084;16.958;2022-12-10T11:13:25;99461.08;;;0.91;100.00
54600;BME280;40500;51.084;16.958;2022-12-10T11:16:01;99470.73;;;0.91;100.00
54600;BME280;40500;51.084;16.958;2022-12-10T11:18:35;99468.83;;;0.91;100.00
54600;BME280;40500;51.084;16.958;2022-12-10T11:21:15;99472.12;;;0.92;100.00
54600;BME280;40500;51.084;16.958;2022-12-10T11:23:49;99469.88;;;0.94;100.00
54600;BME280;40500;51.084;16.958;2022-12-10T11:26:40;99472.14;;;0.95;100.00
54600;BME280;40500;51.084;16.958;2022-12-10T11:29:23;99465.79;;;0.97;100.00
54600;BME280;40500;51.084;16.958;2022-12-10T11:32:10;99461.98;;;0.96;100.00
54600;BME280;40500;51.084;16.958;2022-12-10T11:34:54;99466.45;;;0.95;100.00
54600;BME280;40500;51.084;16.958;2022-12-10T11:37:32;99471.81;;;0.97;100.00
54600;BME280;40500;51.084;16.958;2022-12-10T11:40:26;99470.27;;;0.98;100.00
54600;BME280;40500;51.084;16.958;2022-12-10T11:43:07;99480.61;;;0.98;100.00
54600;BME280;40500;51.084;16.958;2022-12-10T11:46:09;99473.23;;;1.01;100.00
54600;BME280;40500;51.084;16.958;2022-12-10T11:48:54;99472.55;;;1.04;100.00
54600;BME280;40500;51.084;16.958;2022-12-10T11:51:34;99469.98;;;1.05;100.00
54600;BME280;40500;51.084;16.958;2022-12-10T11:54:18;99470.52;;;1.06;100.00
54600;BME280;40500;51.084;16.958;2022-12-10T11:56:58;99470.15;;;1.06;100.00
54600;BME280;40500;51.084;16.958;2022-12-10T11:59:39;99477.73;;;1.04;100.00
54600;BME280;40500;51.084;16.958;2022-12-10T12:02:51;99483.23;;;1.04;100.00
54600;BME280;40500;51.084;16.958;2022-12-10T12:05:40;99478.92;;;1.03;100.00
54600;BME280;40500;51.084;16.958;2022-12-10T12:08:23;99471.52;;;1.03;100.00
54600;BME280;40500;51.084;16.958;2022-12-10T12:11:11;99471.51;;;1.03;100.00
54600;BME280;40500;51.084;16.958;2022-12-10T12:13:53;99465.47;;;1.02;100.00
54600;BME280;40500;51.084;16.958;2022-12-10T12:16:30;99467.36;;;1.00;100.00
54600;BME280;40500;51.084;16.958;2022-12-10T12:19:05;99474.23;;;0.99;100.00
54600;BME280;40500;51.084;16.958;2022-12-10T12:21:41;99475.08;;;0.98;100.00
54600;BME280;40500;51.084;16.958;2022-12-10T12:24:17;99475.61;;;0.98;100.00
54600;BME280;40500;51.084;16.958;2022-12-10T12:26:54;99470.26;;;0.98;100.00
54600;BME280;40500;51.084;16.958;2022-12-10T12:29:32;99462.84;;;0.97;100.00
54600;BME280;40500;51.084;16.958;2022-12-10T12:32:13;99464.40;;;0.98;100.00
54600;BME280;40500;51.084;16.958;2022-12-10T12:34:51;99465.30;;;0.99;100.00
54600;BME280;40500;51.084;16.958;2022-12-10T12:37:34;99462.17;;;0.99;100.00
54600;BME280;40500;51.084;16.958;2022-12-10T12:40:12;99461.49;;;0.99;100.00
54600;BME280;40500;51.084;16.958;2022-12-10T12:42:50;99461.98;;;0.97;100.00
54600;BME280;40500;51.084;16.958;2022-12-10T12:45:32;99462.16;;;0.97;100.00
54600;BME280;40500;51.084;16.958;2022-12-10T12:48:11;99457.67;;;0.97;100.00
54600;BME280;40500;51.084;16.958;2022-12-10T12:50:48;99464.92;;;0.97;100.00
54600;BME280;40500;51.084;16.958;2022-12-10T12:53:21;99462.66;;;0.96;100.00
54600;BME280;40500;51.084;16.958;2022-12-10T12:55:59;99464.92;;;0.97;100.00
54600;BME280;40500;51.084;16.958;2022-12-10T12:58:40;99454.04;;;0.95;100.00
54600;BME280;40500;51.084;16.958;2022-12-10T13:01:30;99448.69;;;0.94;100.00
54600;BME280;40500;51.084;16.958;2022-12-10T13:04:04;99449.19;;;0.91;100.00
54600;BME280;40500;51.084;16.958;2022-12-10T13:06:37;99449.16;;;0.90;100.00
54600;BME280;40500;51.084;16.958;2022-12-10T13:09:28;99448.65;;;0.90;100.00
54600;BME280;40500;51.084;16.958;2022-12-10T13:12:29;99446.77;;;0.91;100.00
54600;BME280;40500;51.084;16.958;2022-12-10T13:15:17;99453.66;;;0.91;100.00
54600;BME280;40500;51.084;16.958;2022-12-10T13:18:20;99448.82;;;0.89;100.00
54600;BME280;40500;51.084;16.958;2022-12-10T13:21:13;99454.52;;;0.88;100.00
54600;BME280;40500;51.084;16.958;2022-12-10T13:23:50;99458.30;;;0.88;100.00
54600;BME280;40500;51.084;16.958;2022-12-10T13:26:29;99462.44;;;0.88;100.00
54600;BME280;40500;51.084;16.958;2022-12-10T13:29:22;99464.83;;;0.87;100.00
54600;BME280;40500;51.084;16.958;2022-12-10T13:32:02;99466.21;;;0.87;100.00
54600;BME280;40500;51.084;16.958;2022-12-10T13:34:36;99463.63;;;0.87;100.00
54600;BME280;40500;51.084;16.958;2022-12-10T13:37:17;99460.35;;;0.86;100.00
54600;BME280;40500;51.084;16.958;2022-12-10T13:39:54;99461.89;;;0.86;100.00
54600;BME280;40500;51.084;16.958;2022-12-10T13:42:37;99463.96;;;0.86;100.00
54600;BME280;40500;51.084;16.958;2022-12-10T13:45:32;99466.71;;;0.84;100.00
54600;BME280;40500;51.084;16.958;2022-12-10T13:48:29;99463.25;;;0.83;100.00